1886 Tropical Storm NOT_NAMED (1886249N15328)


IBTrACS version v04r00. Visit IBTrACS website for data access.
Please direct all questions to the IBTrACS Q and A forum

Storm track - Intensity - Wind Radii - Intensity Data - Source Data - All data

Summary Information

Storm ID 1886249N15328
Start Sep 5 12Z
Max Intensity 45 kt (Sep 7 12Z)
End Sep 11 12Z
ATCF IDs
Track status Best track data.

Storm track plot

Map of storm track

Intensity plots

Map of storm track

Radial wind information

No radial wind information for this storm


Position and Intensity Table

BASIN ISO_TIME_________ NATURE LAT LON MLC WIND
degrees north degrees east kts
NA 1886-09-05 12:00:00 TS 14.50 -32.00 30
NA 15:00:00 TS 14.70 -33.06 30
NA 18:00:00 TS 14.90 -34.10 30
NA 21:00:00 TS 15.10 -35.10 30
NA 1886-09-06 00:00:00 TS 15.30 -36.10 30
NA 03:00:00 TS 15.51 -37.15 30
NA 06:00:00 TS 15.70 -38.20 30
NA 09:00:00 TS 15.84 -39.22 30
NA 12:00:00 TS 16.00 -40.20 30
NA 15:00:00 TS 16.24 -41.15 30
NA 18:00:00 TS 16.50 -42.10 30
NA 21:00:00 TS 16.70 -43.09 32
NA 1886-09-07 00:00:00 TS 16.90 -44.10 35
NA 03:00:00 TS 17.15 -45.11 37
NA 06:00:00 TS 17.40 -46.10 40
NA 09:00:00 TS 17.52 -47.06 42
NA 12:00:00 TS 17.80 -48.00 45
NA 15:00:00 TS 18.52 -48.95 45
NA 18:00:00 TS 19.40 -49.90 45
NA 21:00:00 TS 20.15 -50.87 45
NA 1886-09-08 00:00:00 TS 20.90 -51.80 45
NA 03:00:00 TS 21.70 -52.62 45
NA 06:00:00 TS 22.50 -53.40 45
NA 09:00:00 TS 23.27 -54.26 45
NA 12:00:00 TS 24.00 -55.00 45
NA 15:00:00 TS 24.67 -55.47 45
NA 18:00:00 TS 25.30 -55.80 45
NA 21:00:00 TS 25.90 -56.16 45
NA 1886-09-09 00:00:00 TS 26.50 -56.50 45
NA 03:00:00 TS 27.15 -56.88 42
NA 06:00:00 TS 27.80 -57.20 40
NA 09:00:00 TS 28.44 -57.43 37
NA 12:00:00 TS 29.00 -57.50 35
NA 15:00:00 TS 29.39 -57.43 32
NA 18:00:00 TS 29.70 -57.20 30
NA 21:00:00 TS 30.01 -56.90 30
NA 1886-09-10 00:00:00 TS 30.30 -56.50 30
NA 03:00:00 TS 30.60 -56.02 30
NA 06:00:00 TS 30.90 -55.50 30
NA 09:00:00 TS 31.24 -55.01 30
NA 12:00:00 TS 31.50 -54.50 30
NA 15:00:00 TS 31.58 -53.96 27
NA 18:00:00 TS 31.60 -53.40 25
NA 21:00:00 TS 31.70 -52.85 25
NA 1886-09-11 00:00:00 TS 31.80 -52.30 25
NA 03:00:00 TS 31.86 -51.76 25
NA 06:00:00 TS 31.90 -51.20 25
NA 09:00:00 TS 31.95 -50.61 25
NA 12:00:00 TS 32.00 -50.00 25

Source Information

Agency Information
USA
TOKYO
CMA
HKO
NEWDELHI
REUNION
BOM
NADI
WELLINGTON
DS824
TD9636
TD9635
NEUMANN
MLC

All available IBTrACS Data

SEASON BASIN SUBBASIN ISO_TIME_________ NATURE LAT LON DIST2LAND LANDFALL IFLAG USA SSHS MLC LAT MLC LON MLC CLASS MLC WIND STORM SPEED STORM DIR
Year degrees north degrees east km km 1 degrees north degrees east kts kts degrees
1886 NA NA 1886-09-05 12:00:00 TS 14.50 -32.00 1560 1560 _____________O -1 14.50 -32.00 TD 30 21 281
1886 NA NA 15:00:00 TS 14.70 -33.06 1678 1678 _____________P -1 14.70 -33.06 TD 30 21 281
1886 NA NA 18:00:00 TS 14.90 -34.10 1785 1785 _____________O -1 14.90 -34.10 TD 30 20 281
1886 NA NA 21:00:00 TS 15.10 -35.10 1892 1892 _____________P -1 15.10 -35.10 TD 30 20 282
1886 NA NA 1886-09-06 00:00:00 TS 15.30 -36.10 1999 1997 _____________O -1 15.30 -36.10 TD 30 20 282
1886 NA NA 03:00:00 TS 15.51 -37.15 1988 1927 _____________P -1 15.51 -37.15 TD 30 21 281
1886 NA NA 06:00:00 TS 15.70 -38.20 1919 1846 _____________O -1 15.70 -38.20 TD 30 20 280
1886 NA NA 09:00:00 TS 15.84 -39.22 1846 1793 _____________P -1 15.84 -39.22 TD 30 19 279
1886 NA NA 12:00:00 TS 16.00 -40.20 1785 1737 _____________O -1 16.00 -40.20 TD 30 19 282
1886 NA NA 15:00:00 TS 16.24 -41.15 1737 1700 _____________P -1 16.24 -41.15 TD 30 19 285
1886 NA NA 18:00:00 TS 16.50 -42.10 1696 1658 _____________O -1 16.50 -42.10 TD 30 19 284
1886 NA NA 21:00:00 TS 16.70 -43.09 1652 1611 _____________P -1 16.70 -43.09 TD 32 20 282
1886 NA NA 1886-09-07 00:00:00 TS 16.90 -44.10 1604 1563 _____________O -1 16.90 -44.10 TS 35 20 283
1886 NA NA 03:00:00 TS 17.15 -45.11 1563 1543 _____________P -1 17.15 -45.11 TS 37 20 285
1886 NA NA 06:00:00 TS 17.40 -46.10 1538 1505 _____________O -1 17.40 -46.10 TS 40 19 281
1886 NA NA 09:00:00 TS 17.52 -47.06 1500 1487 _____________P -1 17.52 -47.06 TS 42 19 282
1886 NA NA 12:00:00 TS 17.80 -48.00 1493 1488 _____________O -1 17.80 -48.00 TS 45 21 299
1886 NA NA 15:00:00 TS 18.52 -48.95 1523 1523 _____________P -1 18.52 -48.95 TS 45 24 312
1886 NA NA 18:00:00 TS 19.40 -49.90 1538 1516 _____________O -1 19.40 -49.90 TS 45 24 312
1886 NA NA 21:00:00 TS 20.15 -50.87 1508 1471 _____________P -1 20.15 -50.87 TS 45 23 310
1886 NA NA 1886-09-08 00:00:00 TS 20.90 -51.80 1471 1406 _____________O -1 20.90 -51.80 TS 45 23 313
1886 NA NA 03:00:00 TS 21.70 -52.62 1406 1350 _____________P -1 21.70 -52.62 TS 45 22 317
1886 NA NA 06:00:00 TS 22.50 -53.40 1350 1300 _____________O -1 22.50 -53.40 TS 45 22 316
1886 NA NA 09:00:00 TS 23.27 -54.26 1294 1262 _____________P -1 23.27 -54.26 TS 45 21 316
1886 NA NA 12:00:00 TS 24.00 -55.00 1263 1253 _____________O -1 24.00 -55.00 TS 45 18 322
1886 NA NA 15:00:00 TS 24.67 -55.47 1258 1256 _____________P -1 24.67 -55.47 TS 45 15 331
1886 NA NA 18:00:00 TS 25.30 -55.80 1270 1269 _____________O -1 25.30 -55.80 TS 45 14 333
1886 NA NA 21:00:00 TS 25.90 -56.16 1279 1279 _____________P -1 25.90 -56.16 TS 45 14 332
1886 NA NA 1886-09-09 00:00:00 TS 26.50 -56.50 1300 1300 _____________O -1 26.50 -56.50 TS 45 14 333
1886 NA NA 03:00:00 TS 27.15 -56.88 1326 1326 _____________P -1 27.15 -56.88 TS 42 14 334
1886 NA NA 06:00:00 TS 27.80 -57.20 1355 1355 _____________O -1 27.80 -57.20 TS 40 14 340
1886 NA NA 09:00:00 TS 28.44 -57.43 1394 1394 _____________P -1 28.44 -57.43 TS 37 12 348
1886 NA NA 12:00:00 TS 29.00 -57.50 1442 1442 _____________O -1 29.00 -57.50 TS 35 10 358
1886 NA NA 15:00:00 TS 29.39 -57.43 1483 1483 _____________P -1 29.39 -57.43 TS 32 8 21
1886 NA NA 18:00:00 TS 29.70 -57.20 1522 1522 _____________O -1 29.70 -57.20 TD 30 8 37
1886 NA NA 21:00:00 TS 30.01 -56.90 1566 1566 _____________P -1 30.01 -56.90 TD 30 9 45
1886 NA NA 1886-09-10 00:00:00 TS 30.30 -56.50 1616 1616 _____________O -1 30.30 -56.50 TD 30 10 52
1886 NA NA 03:00:00 TS 30.60 -56.02 1653 1641 _____________P -1 30.60 -56.02 TD 30 11 55
1886 NA NA 06:00:00 TS 30.90 -55.50 1646 1635 _____________O -1 30.90 -55.50 TD 30 11 54
1886 NA NA 09:00:00 TS 31.24 -55.01 1640 1625 _____________P -1 31.24 -55.01 TD 30 10 55
1886 NA NA 12:00:00 TS 31.50 -54.50 1628 1623 _____________O -1 31.50 -54.50 TD 30 10 69
1886 NA NA 15:00:00 TS 31.58 -53.96 1633 1633 _____________P -1 31.58 -53.96 TD 27 9 84
1886 NA NA 18:00:00 TS 31.60 -53.40 1653 1653 _____________O -1 31.60 -53.40 TD 25 9 83
1886 NA NA 21:00:00 TS 31.70 -52.85 1658 1648 _____________P -1 31.70 -52.85 TD 25 10 78
1886 NA NA 1886-09-11 00:00:00 TS 31.80 -52.30 1649 1640 _____________O -1 31.80 -52.30 TD 25 9 80
1886 NA NA 03:00:00 TS 31.86 -51.76 1640 1640 _____________P -1 31.86 -51.76 TD 25 9 84
1886 NA NA 06:00:00 TS 31.90 -51.20 1645 1645 _____________O -1 31.90 -51.20 TD 25 10 85
1886 NA NA 09:00:00 TS 31.95 -50.61 1651 1640 _____________P -1 31.95 -50.61 TD 25 10 84
1886 NA NA 12:00:00 TS 32.00 -50.00 1647 _____________O -1 32.00 -50.00 TD 25 10 84